Time;durP1;ratioP1;P1;durP2;ratioP2;P2;SDS_P1;SDS_P2;PMS_P1;PMS_P2;Temp;Humidity;BMP_temperature;BMP_pressure;BME280_temperature;BME280_humidity;BME280_pressure;Samples;Min_cycle;Max_cycle;Signal;HPM_P1;HPM_P2
2023/10/17 00:02:26;;;;;;;18.40;9.43;;;4.00;43.60;;;;;;5043382;28;46715;-69
2023/10/17 00:04:52;;;;;;;15.20;10.80;;;4.00;43.30;;;;;;5055848;28;46481;-70
2023/10/17 00:07:20;;;;;;;17.07;9.87;;;4.00;43.30;;;;;;5060295;28;45882;-70
2023/10/17 00:09:47;;;;;;;21.20;10.30;;;4.00;43.60;;;;;;5060016;28;46960;-69
2023/10/17 00:14:45;;;;;;;17.10;9.60;;;3.80;44.10;;;;;;5059488;28;46501;-69
2023/10/17 00:17:15;;;;;;;18.23;10.30;;;3.80;44.30;;;;;;5060973;28;46492;-69
2023/10/17 00:19:42;;;;;;;16.13;9.93;;;3.90;44.20;;;;;;5059586;28;47175;-68
2023/10/17 00:22:18;;;;;;;18.23;10.57;;;3.90;44.10;;;;;;5058177;28;45799;-69
2023/10/17 00:24:47;;;;;;;18.00;10.00;;;3.90;44.30;;;;;;5055815;28;46359;-69
2023/10/17 00:27:13;;;;;;;17.23;10.80;;;3.90;44.00;;;;;;5057373;28;46528;-69
2023/10/17 00:29:39;;;;;;;17.47;9.60;;;3.90;44.20;;;;;;5058912;28;46452;-69
2023/10/17 00:32:08;;;;;;;16.43;10.60;;;3.80;44.30;;;;;;5058334;28;46468;-70
2023/10/17 00:34:34;;;;;;;22.87;11.80;;;3.80;44.50;;;;;;5058195;28;46510;-69
2023/10/17 00:37:35;;;;;;;19.23;10.10;;;3.80;44.50;;;;;;5059169;28;46339;-69
2023/10/17 00:39:51;;;;;;;19.87;11.10;;;3.80;44.60;;;;;;5057951;28;47782;-69
2023/10/17 00:42:34;;;;;;;18.53;10.27;;;3.70;44.70;;;;;;5061529;27;46464;-69
2023/10/17 00:45:00;;;;;;;21.63;10.20;;;3.60;44.80;;;;;;5059594;28;46489;-69
2023/10/17 00:47:27;;;;;;;16.10;10.33;;;3.60;45.10;;;;;;5058687;28;46743;-69
2023/10/17 00:49:53;;;;;;;17.37;10.00;;;3.50;45.30;;;;;;5059621;28;47376;-69
2023/10/17 00:52:24;;;;;;;19.20;10.90;;;3.50;45.50;;;;;;5060015;28;46418;-69
2023/10/17 00:54:53;;;;;;;19.87;10.00;;;3.40;45.50;;;;;;5057808;28;46543;-69
2023/10/17 00:57:20;;;;;;;15.90;9.10;;;3.30;45.80;;;;;;5058445;28;46403;-69
2023/10/17 00:59:53;;;;;;;17.10;10.07;;;3.20;46.10;;;;;;5060188;28;46409;-68
2023/10/17 01:02:29;;;;;;;16.55;9.80;;;3.20;46.80;;;;;;5059090;28;46413;-68
2023/10/17 01:04:58;;;;;;;22.13;10.87;;;3.10;46.60;;;;;;5060661;28;46390;-69
2023/10/17 01:07:29;;;;;;;16.13;10.40;;;3.00;46.60;;;;;;5059486;28;46326;-69
2023/10/17 01:09:55;;;;;;;18.83;10.73;;;2.90;46.50;;;;;;5042379;28;46513;-69
2023/10/17 01:12:26;;;;;;;17.42;10.32;;;2.90;46.60;;;;;;5060337;28;46302;-69
2023/10/17 01:14:53;;;;;;;23.08;9.80;;;2.80;46.50;;;;;;5059583;28;46497;-69
2023/10/17 01:17:23;;;;;;;17.70;10.73;;;2.80;46.50;;;;;;5058944;28;46634;-69
2023/10/17 01:19:53;;;;;;;18.37;10.20;;;2.80;46.50;;;;;;5057241;28;47298;-68
2023/10/17 01:22:20;;;;;;;22.20;11.65;;;2.70;46.40;;;;;;5058571;28;46343;-69
2023/10/17 01:24:45;;;;;;;21.98;10.50;;;2.70;47.50;;;;;;5060200;28;46382;-68
2023/10/17 01:27:13;;;;;;;16.60;10.10;;;2.70;46.40;;;;;;5059088;28;46375;-68
2023/10/17 01:29:41;;;;;;;18.83;10.70;;;2.70;46.40;;;;;;5059293;28;46428;-69
2023/10/17 01:32:09;;;;;;;21.58;11.10;;;2.70;46.40;;;;;;5059049;28;46452;-69
2023/10/17 01:34:36;;;;;;;19.70;10.80;;;2.70;46.40;;;;;;5059250;28;46362;-69
2023/10/17 01:37:03;;;;;;;18.67;10.40;;;2.70;46.40;;;;;;5062288;28;46389;-69
2023/10/17 01:39:29;;;;;;;20.60;10.23;;;2.70;46.30;;;;;;5064707;28;46489;-69
2023/10/17 01:41:55;;;;;;;19.42;10.32;;;2.60;46.20;;;;;;5062682;28;46422;-68
2023/10/17 01:44:21;;;;;;;17.53;10.00;;;2.50;46.20;;;;;;5061299;28;46487;-69
2023/10/17 01:46:46;;;;;;;15.63;9.60;;;2.50;46.20;;;;;;5062605;28;46481;-69
2023/10/17 01:49:13;;;;;;;22.20;9.20;;;2.40;46.60;;;;;;5064300;28;47296;-69
2023/10/17 01:51:49;;;;;;;15.57;9.90;;;2.40;46.90;;;;;;5062784;28;46450;-69
2023/10/17 01:54:16;;;;;;;18.70;9.45;;;2.30;47.10;;;;;;5060131;28;46628;-69
2023/10/17 01:56:48;;;;;;;17.00;9.20;;;2.20;47.10;;;;;;5064396;28;46381;-68
2023/10/17 01:59:17;;;;;;;18.50;10.45;;;2.20;47.10;;;;;;5065063;28;46463;-68
2023/10/17 02:01:43;;;;;;;22.60;11.85;;;2.30;47.20;;;;;;5050481;28;46479;-69
2023/10/17 02:04:18;;;;;;;19.27;11.00;;;2.20;48.30;;;;;;5067419;28;46398;-68
2023/10/17 02:06:44;;;;;;;19.77;11.50;;;2.20;47.20;;;;;;5062123;28;46395;-68
2023/10/17 02:09:44;;;;;;;19.83;11.40;;;2.20;47.40;;;;;;5062163;28;46909;-69
2023/10/17 02:12:11;;;;;;;17.75;10.80;;;2.10;47.30;;;;;;5062233;28;46592;-70
2023/10/17 02:14:37;;;;;;;22.00;10.23;;;2.10;47.60;;;;;;5059133;28;46557;-70
2023/10/17 02:17:03;;;;;;;20.43;10.27;;;2.00;47.60;;;;;;5062705;28;46554;-69
2023/10/17 02:19:32;;;;;;;20.13;10.17;;;2.00;47.60;;;;;;5060698;28;47157;-69
2023/10/17 02:21:58;;;;;;;18.88;9.30;;;2.00;47.70;;;;;;5062745;28;46423;-69
2023/10/17 02:24:25;;;;;;;15.68;7.90;;;1.90;47.70;;;;;;5063368;28;46361;-69
2023/10/17 02:26:58;;;;;;;15.75;9.15;;;1.90;48.00;;;;;;5062519;28;46663;-69
2023/10/17 02:29:26;;;;;;;24.67;10.07;;;1.80;48.10;;;;;;5060671;28;46291;-69
2023/10/17 02:31:52;;;;;;;19.15;10.73;;;1.70;48.30;;;;;;5061753;28;46394;-69
2023/10/17 02:34:22;;;;;;;19.10;9.75;;;1.70;48.40;;;;;;5061799;28;46506;-69
2023/10/17 02:36:49;;;;;;;17.23;9.93;;;1.70;48.50;;;;;;5060393;28;46567;-69
2023/10/17 02:39:15;;;;;;;20.80;10.40;;;1.70;48.50;;;;;;5062038;28;46326;-69
2023/10/17 02:41:45;;;;;;;18.63;10.90;;;1.70;48.30;;;;;;5061153;28;46385;-69
2023/10/17 02:44:13;;;;;;;19.33;9.82;;;1.70;48.30;;;;;;5059729;28;46436;-69
2023/10/17 02:46:40;;;;;;;16.70;9.80;;;1.60;48.30;;;;;;5061764;28;46398;-69
2023/10/17 02:49:07;;;;;;;14.70;9.13;;;1.60;48.30;;;;;;5063148;28;46264;-69
2023/10/17 02:51:42;;;;;;;16.05;9.18;;;1.50;48.40;;;;;;5059947;28;46618;-69
2023/10/17 02:54:18;;;;;;;18.35;9.20;;;1.50;48.70;;;;;;5057505;28;46571;-69
2023/10/17 02:56:51;;;;;;;20.65;9.57;;;1.40;48.70;;;;;;5059650;28;46408;-70
2023/10/17 02:59:17;;;;;;;15.48;8.45;;;1.40;48.70;;;;;;5061927;28;46421;-68
2023/10/17 03:01:43;;;;;;;18.17;9.67;;;1.30;48.80;;;;;;5062241;28;46401;-69
2023/10/17 03:04:17;;;;;;;18.95;9.50;;;1.30;48.80;;;;;;5061308;28;46492;-69
2023/10/17 03:06:44;;;;;;;16.33;9.40;;;1.20;48.80;;;;;;5061084;28;45863;-68
2023/10/17 03:14:39;;;;;;;15.75;8.80;;;1.20;48.90;;;;;;5058667;28;46372;-68
2023/10/17 03:17:05;;;;;;;17.42;9.57;;;1.20;48.90;;;;;;5061416;28;46451;-68
2023/10/17 03:19:33;;;;;;;15.25;9.15;;;1.20;48.70;;;;;;5058693;28;46554;-69
2023/10/17 03:22:16;;;;;;;16.10;9.25;;;1.20;48.70;;;;;;5039550;28;46479;-68
2023/10/17 03:24:42;;;;;;;19.05;8.93;;;1.20;49.70;;;;;;5062398;28;46437;-68
2023/10/17 03:27:11;;;;;;;20.67;9.80;;;1.20;48.50;;;;;;5061493;28;46433;-68
2023/10/17 03:29:41;;;;;;;18.15;9.70;;;1.20;48.50;;;;;;5065531;28;47355;-67
2023/10/17 03:32:13;;;;;;;16.88;9.13;;;1.30;48.70;;;;;;5062003;28;46429;-69
2023/10/17 03:34:44;;;;;;;17.10;9.30;;;1.20;48.50;;;;;;5063197;28;46433;-68
2023/10/17 03:39:55;;;;;;;15.82;8.10;;;1.10;48.70;;;;;;5055104;28;46517;-68
2023/10/17 03:45:12;;;;;;;19.88;9.73;;;1.00;48.50;;;;;;5061222;28;46387;-69
2023/10/17 03:47:44;;;;;;;18.33;10.00;;;1.10;48.50;;;;;;5061099;28;46231;-68
2023/10/17 03:50:10;;;;;;;17.23;9.32;;;1.10;48.50;;;;;;5059113;28;46432;-69
2023/10/17 03:52:36;;;;;;;21.73;9.33;;;1.10;48.30;;;;;;5060831;28;46421;-69
2023/10/17 03:55:02;;;;;;;16.17;9.20;;;1.10;48.30;;;;;;5057415;28;46381;-69
2023/10/17 03:57:28;;;;;;;15.57;8.93;;;1.10;48.30;;;;;;5057651;28;46414;-69
2023/10/17 03:59:56;;;;;;;19.77;9.20;;;1.10;48.30;;;;;;5059999;28;46339;-70
2023/10/17 04:02:24;;;;;;;16.25;9.23;;;1.00;48.10;;;;;;5059720;28;46383;-69
2023/10/17 04:04:53;;;;;;;16.98;9.95;;;1.10;48.40;;;;;;5057261;28;46438;-69
2023/10/17 04:07:31;;;;;;;18.80;10.00;;;1.10;48.30;;;;;;5061109;28;46450;-69
2023/10/17 04:13:06;;;;;;;22.25;11.30;;;1.00;49.40;;;;;;5053572;28;46450;-68
2023/10/17 04:15:32;;;;;;;18.30;10.05;;;1.10;48.10;;;;;;5058770;28;46234;-69
2023/10/17 04:18:01;;;;;;;20.77;10.77;;;1.10;48.10;;;;;;5058316;28;46669;-68
2023/10/17 04:20:30;;;;;;;21.15;11.80;;;1.10;47.90;;;;;;5059649;28;47114;-69
2023/10/17 04:22:56;;;;;;;18.33;10.48;;;1.20;47.70;;;;;;5062106;28;46723;-67
2023/10/17 04:25:34;;;;;;;18.13;10.90;;;1.30;47.40;;;;;;5058523;28;46488;-67
2023/10/17 04:28:01;;;;;;;18.15;10.52;;;1.50;46.90;;;;;;5058382;28;46441;-68
2023/10/17 04:30:34;;;;;;;17.60;10.75;;;1.60;46.10;;;;;;5059757;28;46381;-68
2023/10/17 04:33:09;;;;;;;22.20;11.23;;;1.80;45.50;;;;;;5059637;28;46552;-69
2023/10/17 04:35:46;;;;;;;20.23;10.43;;;1.90;45.70;;;;;;5049316;28;46481;-68
2023/10/17 04:38:19;;;;;;;20.55;11.00;;;2.10;45.80;;;;;;5059647;28;46231;-69
2023/10/17 04:46:16;;;;;;;16.55;10.00;;;2.40;44.90;;;;;;5058992;28;46386;-68
2023/10/17 04:48:46;;;;;;;22.10;12.05;;;2.50;44.70;;;;;;5054993;28;46584;-70
2023/10/17 04:51:20;;;;;;;15.65;9.73;;;2.50;44.60;;;;;;5056879;28;46447;-67
2023/10/17 04:53:50;;;;;;;15.75;9.85;;;2.60;44.80;;;;;;5056417;28;46528;-69
2023/10/17 04:56:17;;;;;;;19.50;11.02;;;2.60;44.60;;;;;;5055743;28;46654;-69
2023/10/17 05:05:24;;;;;;;17.90;9.93;;;2.80;44.60;;;;;;5058200;28;46455;-68
2023/10/17 06:17:48;;;;;;;71.63;19.50;;;3.80;45.50;;;;;;5063678;28;46353;-69
2023/10/17 06:20:16;;;;;;;59.92;17.10;;;3.80;45.30;;;;;;5063012;28;46838;-69
2023/10/17 06:28:26;;;;;;;69.83;17.60;;;4.10;44.60;;;;;;5064686;28;46458;-69
2023/10/17 06:33:36;;;;;;;54.23;16.30;;;4.10;44.80;;;;;;5062035;28;46335;-68
2023/10/17 06:36:13;;;;;;;61.47;16.90;;;4.10;45.30;;;;;;5063928;28;46497;-69
2023/10/17 06:38:46;;;;;;;41.50;15.00;;;4.20;45.00;;;;;;5062815;28;48195;-69
2023/10/17 06:41:14;;;;;;;65.85;16.90;;;4.20;45.10;;;;;;5062554;28;46350;-68
2023/10/17 06:43:46;;;;;;;46.90;16.00;;;4.30;44.80;;;;;;5045282;28;46267;-69
2023/10/17 06:46:14;;;;;;;71.30;16.73;;;4.40;44.90;;;;;;5063417;28;46382;-69
2023/10/17 06:48:49;;;;;;;49.57;17.60;;;4.40;45.00;;;;;;5062570;28;48763;-68
2023/10/17 06:53:41;;;;;;;55.47;17.70;;;4.60;44.90;;;;;;5061126;28;46459;-67
2023/10/17 06:56:09;;;;;;;50.63;17.60;;;4.70;44.80;;;;;;5065145;28;46632;-69
2023/10/17 06:58:36;;;;;;;69.47;19.37;;;4.80;44.70;;;;;;5062616;28;47332;-69
2023/10/17 07:01:04;;;;;;;90.57;18.50;;;4.90;44.70;;;;;;5063201;28;46310;-69
2023/10/17 07:03:34;;;;;;;77.40;18.07;;;5.00;44.60;;;;;;5060871;28;46573;-67
2023/10/17 07:06:16;;;;;;;45.93;16.97;;;5.10;44.60;;;;;;5064049;28;46313;-68
2023/10/17 07:08:45;;;;;;;88.40;18.93;;;5.30;44.30;;;;;;5061529;28;47161;-68
2023/10/17 07:14:47;;;;;;;49.83;17.23;;;5.40;44.40;;;;;;5060994;28;45873;-68
2023/10/17 07:16:48;;;;;;;94.83;18.27;;;5.50;44.30;;;;;;5048872;28;46394;-68
2023/10/17 07:24:42;;;;;;;87.20;17.60;;;5.70;44.40;;;;;;5061928;28;46508;-68
2023/10/17 07:27:11;;;;;;;89.10;18.60;;;5.60;44.80;;;;;;5062578;28;45855;-68
2023/10/17 07:29:37;;;;;;;78.03;19.10;;;5.60;45.10;;;;;;5063948;28;45940;-69
2023/10/17 07:32:09;;;;;;;76.63;19.73;;;5.50;45.60;;;;;;5044518;28;46517;-69
2023/10/17 07:34:36;;;;;;;157.93;16.80;;;5.70;45.50;;;;;;5059906;28;46493;-68
2023/10/17 07:39:37;;;;;;;67.20;17.40;;;5.90;45.20;;;;;;5061341;28;46897;-67
2023/10/17 07:42:04;;;;;;;104.07;19.27;;;5.90;45.30;;;;;;5064983;28;46360;-68
2023/10/17 07:44:34;;;;;;;56.37;16.50;;;6.00;45.10;;;;;;5063743;28;46505;-68
2023/10/17 07:47:19;;;;;;;80.23;17.00;;;6.00;45.40;;;;;;5058928;28;46478;-67
2023/10/17 07:49:47;;;;;;;85.63;18.07;;;6.10;45.30;;;;;;5061504;28;46420;-67
2023/10/17 07:52:15;;;;;;;50.77;16.70;;;6.30;45.00;;;;;;5063027;28;46704;-67
2023/10/17 07:54:45;;;;;;;78.93;17.73;;;6.40;44.80;;;;;;5061381;28;46537;-67
2023/10/17 07:57:17;;;;;;;137.03;18.60;;;6.50;44.70;;;;;;5062596;28;46449;-69
2023/10/17 07:59:52;;;;;;;64.97;19.67;;;6.60;44.60;;;;;;5062031;28;47259;-69
2023/10/17 08:02:23;;;;;;;68.80;19.00;;;6.60;44.50;;;;;;5062082;28;46358;-67
2023/10/17 08:04:49;;;;;;;44.30;19.33;;;6.70;44.40;;;;;;5061405;28;46617;-68
2023/10/17 08:07:16;;;;;;;33.97;18.00;;;6.80;44.40;;;;;;5061476;28;46635;-69
2023/10/17 08:09:50;;;;;;;99.37;16.60;;;6.80;44.10;;;;;;5060858;28;47695;-67
2023/10/17 08:12:22;;;;;;;101.30;17.40;;;6.90;44.10;;;;;;5056651;28;46468;-66
2023/10/17 08:14:58;;;;;;;75.63;16.83;;;6.80;44.50;;;;;;5041908;28;46569;-67
2023/10/17 08:17:34;;;;;;;60.30;18.00;;;6.80;44.70;;;;;;5058287;28;46546;-67
2023/10/17 08:20:00;;;;;;;44.53;18.63;;;6.80;44.70;;;;;;5058496;28;46732;-67
2023/10/17 08:22:54;;;;;;;30.50;15.70;;;6.90;44.70;;;;;;5057389;28;46453;-67
2023/10/17 08:25:14;;;;;;;48.93;15.90;;;7.00;44.70;;;;;;5059013;28;46480;-68
2023/10/17 08:30:18;;;;;;;37.57;15.93;;;7.10;44.30;;;;;;5060432;28;46435;-68
2023/10/17 08:33:11;;;;;;;30.77;14.67;;;7.10;44.10;;;;;;5060174;28;46747;-68
2023/10/17 08:35:40;;;;;;;29.20;15.70;;;7.20;44.40;;;;;;5057953;28;46459;-68
2023/10/17 08:38:06;;;;;;;29.10;14.70;;;7.30;44.00;;;;;;5058597;28;46455;-67
2023/10/17 08:43:14;;;;;;;24.93;15.47;;;7.30;44.20;;;;;;5057511;28;46476;-67
2023/10/17 08:45:41;;;;;;;28.77;14.70;;;7.30;44.40;;;;;;5057529;28;46162;-67
2023/10/17 08:48:11;;;;;;;28.77;14.10;;;7.40;44.00;;;;;;5062822;28;46509;-67
2023/10/17 08:50:40;;;;;;;27.37;14.50;;;7.50;43.70;;;;;;5058055;28;46356;-67
2023/10/17 08:53:19;;;;;;;23.83;14.30;;;7.50;43.70;;;;;;5059104;28;46741;-66
2023/10/17 08:55:48;;;;;;;21.40;13.90;;;7.50;43.70;;;;;;5042707;22;46494;-67
2023/10/17 08:58:15;;;;;;;22.57;13.17;;;7.50;43.60;;;;;;5028732;28;46486;-68
2023/10/17 09:01:23;;;;;;;20.77;13.00;;;7.60;43.60;;;;;;5030404;28;47142;-69
2023/10/17 09:03:35;;;;;;;23.87;13.93;;;7.60;44.90;;;;;;5020989;28;46334;-68
2023/10/17 09:11:14;;;;;;;26.20;13.67;;;7.70;43.80;;;;;;5030941;28;46472;-67
2023/10/17 09:14:10;;;;;;;22.00;12.83;;;7.80;43.30;;;;;;5032009;28;46855;-67
2023/10/17 09:16:34;;;;;;;48.83;19.10;;;7.90;43.10;;;;;;5028770;28;45903;-68
2023/10/17 09:19:10;;;;;;;51.93;21.43;;;8.00;42.90;;;;;;5026108;28;46395;-68
2023/10/17 09:21:43;;;;;;;31.17;16.90;;;7.80;44.60;;;;;;5026962;28;47142;-68
2023/10/17 09:24:40;;;;;;;32.50;15.47;;;7.80;43.70;;;;;;5033943;28;46341;-68
2023/10/17 09:27:10;;;;;;;38.67;14.97;;;7.70;43.70;;;;;;5027322;28;46378;-68
2023/10/17 09:29:43;;;;;;;26.90;14.23;;;7.60;44.00;;;;;;5026318;28;46469;-68
2023/10/17 09:32:09;;;;;;;56.00;15.73;;;7.60;44.00;;;;;;5029486;28;46201;-67
2023/10/17 09:34:38;;;;;;;35.43;15.50;;;7.60;43.90;;;;;;5029846;28;46461;-68
2023/10/17 09:37:05;;;;;;;51.77;16.10;;;7.40;44.80;;;;;;5032369;28;46729;-67
2023/10/17 09:39:39;;;;;;;28.00;15.23;;;7.40;45.10;;;;;;5031395;28;46558;-68
2023/10/17 09:42:05;;;;;;;34.70;15.27;;;7.50;45.00;;;;;;5037908;28;46526;-69
2023/10/17 09:44:32;;;;;;;30.60;13.67;;;7.60;44.40;;;;;;5013448;28;46441;-68
2023/10/17 09:47:02;;;;;;;49.10;17.63;;;7.80;43.90;;;;;;5033078;28;46383;-68
2023/10/17 09:49:44;;;;;;;32.70;14.60;;;8.00;43.30;;;;;;5030581;28;46856;-68
2023/10/17 09:52:13;;;;;;;27.50;15.40;;;7.80;43.60;;;;;;5031907;28;47174;-68
2023/10/17 09:54:41;;;;;;;25.40;13.83;;;7.80;44.10;;;;;;5031686;28;46386;-68
2023/10/17 09:57:14;;;;;;;23.83;14.13;;;8.00;43.60;;;;;;5028864;28;46428;-68
2023/10/17 09:59:47;;;;;;;23.33;14.00;;;8.20;42.80;;;;;;5029262;28;46421;-68
2023/10/17 10:02:17;;;;;;;33.47;14.43;;;8.20;42.80;;;;;;5032877;28;46453;-70
2023/10/17 10:04:43;;;;;;;25.90;15.43;;;8.10;43.20;;;;;;5036001;28;46362;-69
2023/10/17 10:07:23;;;;;;;24.73;14.80;;;8.00;43.90;;;;;;5030272;28;46492;-69
2023/10/17 10:09:49;;;;;;;29.00;14.83;;;7.80;44.30;;;;;;5037444;28;46434;-69
2023/10/17 10:12:15;;;;;;;31.37;16.53;;;7.60;46.30;;;;;;5032178;28;47051;-69
2023/10/17 10:14:44;;;;;;;39.83;15.97;;;7.60;45.10;;;;;;5034987;28;45887;-68
2023/10/17 10:17:11;;;;;;;36.43;15.83;;;7.50;45.10;;;;;;5032208;28;46521;-69
2023/10/17 10:19:43;;;;;;;35.37;16.10;;;7.50;45.10;;;;;;5033090;28;46605;-69
2023/10/17 10:22:10;;;;;;;28.10;15.60;;;7.40;45.50;;;;;;5029203;28;46426;-69
2023/10/17 10:24:37;;;;;;;25.43;13.77;;;7.50;45.20;;;;;;5034742;28;46542;-68
2023/10/17 10:29:44;;;;;;;22.13;13.13;;;7.60;45.00;;;;;;5027888;28;46379;-69
2023/10/17 10:32:25;;;;;;;23.20;13.73;;;7.60;44.60;;;;;;5042216;28;47299;-72
2023/10/17 10:34:51;;;;;;;19.70;12.67;;;7.50;44.80;;;;;;5031932;28;46332;-69
2023/10/17 10:37:18;;;;;;;20.93;12.10;;;7.70;44.40;;;;;;5044483;28;46377;-69
2023/10/17 10:40:16;;;;;;;20.60;12.23;;;7.80;44.00;;;;;;5042468;28;46713;-69
2023/10/17 10:42:52;;;;;;;19.30;11.27;;;8.00;43.50;;;;;;5038227;28;46386;-67
2023/10/17 10:45:35;;;;;;;17.47;11.20;;;8.00;43.30;;;;;;5032981;28;46414;-66
2023/10/17 10:48:14;;;;;;;19.63;11.60;;;8.10;43.30;;;;;;5034377;28;46452;-67
2023/10/17 10:50:43;;;;;;;53.83;23.63;;;8.10;43.10;;;;;;5028188;28;46160;-67
2023/10/17 10:53:22;;;;;;;20.23;12.67;;;8.40;42.40;;;;;;5032126;28;47123;-66
2023/10/17 10:55:56;;;;;;;29.97;12.80;;;8.70;41.30;;;;;;5033257;28;46708;-67
2023/10/17 10:58:27;;;;;;;17.90;11.57;;;8.70;41.20;;;;;;5033991;28;46405;-67
2023/10/17 11:00:58;;;;;;;17.80;10.53;;;8.70;41.30;;;;;;5032409;28;45930;-68
2023/10/17 11:03:24;;;;;;;17.77;11.50;;;8.70;41.10;;;;;;5031984;28;46646;-67
2023/10/17 11:06:04;;;;;;;24.20;13.90;;;8.70;41.20;;;;;;5033729;28;46446;-68
2023/10/17 11:08:43;;;;;;;23.63;13.10;;;8.60;43.10;;;;;;5032681;28;45847;-68
2023/10/17 11:11:10;;;;;;;18.83;11.70;;;8.50;42.40;;;;;;5034351;28;46364;-67
2023/10/17 11:13:44;;;;;;;18.27;11.50;;;8.80;41.70;;;;;;5034786;28;46592;-68
2023/10/17 11:16:10;;;;;;;22.90;13.67;;;8.90;41.30;;;;;;5033141;28;46456;-68
2023/10/17 11:18:38;;;;;;;22.20;13.23;;;8.70;40.70;;;;;;5030075;28;46096;-68
2023/10/17 11:21:10;;;;;;;21.53;13.20;;;8.60;42.10;;;;;;5034606;28;46439;-71
2023/10/17 11:23:43;;;;;;;26.60;13.03;;;8.10;42.30;;;;;;5028268;28;46364;-69
2023/10/17 11:26:12;;;;;;;22.20;12.57;;;8.10;43.70;;;;;;5029284;28;46104;-68
2023/10/17 11:28:42;;;;;;;18.30;12.30;;;8.00;43.80;;;;;;5031667;28;45852;-68
2023/10/17 11:34:07;;;;;;;18.60;11.87;;;8.50;41.30;;;;;;5021697;28;46922;-68
2023/10/17 11:36:49;;;;;;;18.60;11.10;;;8.60;42.10;;;;;;5032782;28;46331;-69
2023/10/17 11:39:15;;;;;;;20.00;12.27;;;8.70;41.60;;;;;;5032013;28;46397;-68
2023/10/17 11:41:54;;;;;;;20.00;12.70;;;8.50;42.40;;;;;;5032937;28;45852;-67
2023/10/17 11:44:24;;;;;;;22.40;12.80;;;8.30;44.00;;;;;;5030412;28;46521;-68
2023/10/17 11:47:02;;;;;;;17.57;10.93;;;8.30;43.20;;;;;;5034232;28;46415;-67
2023/10/17 11:49:36;;;;;;;19.60;12.67;;;8.30;43.30;;;;;;5030276;28;46371;-67
2023/10/17 11:52:10;;;;;;;19.60;13.10;;;8.40;42.90;;;;;;5031318;28;45867;-67
2023/10/17 11:54:55;;;;;;;21.90;12.27;;;8.40;42.00;;;;;;5030132;28;46974;-67
2023/10/17 11:57:25;;;;;;;25.07;13.23;;;8.20;43.00;;;;;;5026938;28;46568;-68
2023/10/17 11:59:58;;;;;;;20.33;12.30;;;8.20;43.30;;;;;;5036125;28;46395;-67
2023/10/17 12:02:25;;;;;;;18.17;12.20;;;8.40;42.70;;;;;;5028941;28;46713;-68
2023/10/17 12:04:50;;;;;;;20.77;12.07;;;8.50;41.50;;;;;;5030783;28;47317;-68
2023/10/17 12:07:17;;;;;;;18.63;11.90;;;8.70;42.20;;;;;;5031564;28;45897;-69
2023/10/17 12:09:43;;;;;;;17.77;10.60;;;8.70;41.90;;;;;;5028595;28;46410;-69
2023/10/17 12:12:08;;;;;;;19.30;11.47;;;8.70;41.70;;;;;;5032417;28;46637;-69
2023/10/17 12:14:37;;;;;;;19.80;11.80;;;8.60;41.00;;;;;;5028148;28;46641;-68
2023/10/17 12:17:08;;;;;;;19.20;11.77;;;8.60;42.20;;;;;;5028676;28;46462;-71
2023/10/17 12:19:34;;;;;;;18.73;11.47;;;8.60;42.10;;;;;;5029334;28;46509;-71
2023/10/17 12:22:00;;;;;;;20.00;12.33;;;8.60;41.90;;;;;;5028870;28;45898;-70
2023/10/17 12:24:34;;;;;;;26.40;12.57;;;8.50;42.20;;;;;;5030145;28;47313;-71
2023/10/17 12:27:00;;;;;;;20.70;12.80;;;8.40;42.70;;;;;;5030857;28;46468;-71
2023/10/17 12:29:28;;;;;;;19.97;12.00;;;8.30;42.60;;;;;;5029584;28;46403;-72
2023/10/17 12:32:01;;;;;;;18.80;11.50;;;8.50;42.50;;;;;;5027700;28;46505;-71
2023/10/17 12:34:27;;;;;;;19.80;12.37;;;8.70;40.90;;;;;;5027806;28;47048;-69
2023/10/17 12:36:53;;;;;;;20.30;12.90;;;8.70;41.70;;;;;;5027418;28;46423;-70
2023/10/17 12:39:19;;;;;;;22.30;13.80;;;8.60;42.00;;;;;;5023399;28;46457;-71
2023/10/17 12:41:46;;;;;;;20.63;13.03;;;8.70;41.60;;;;;;5028768;28;46461;-70
2023/10/17 12:44:12;;;;;;;18.80;12.20;;;8.80;41.60;;;;;;5026008;28;48113;-71
2023/10/17 12:46:42;;;;;;;23.30;14.00;;;8.90;41.10;;;;;;5027442;28;46468;-71
2023/10/17 12:49:10;;;;;;;23.77;13.53;;;9.00;40.50;;;;;;5024563;28;46456;-73
2023/10/17 12:51:37;;;;;;;24.67;14.70;;;9.20;39.90;;;;;;5028772;28;46558;-71
2023/10/17 12:54:03;;;;;;;25.87;15.60;;;9.20;40.20;;;;;;5030119;28;47247;-73
2023/10/17 12:56:29;;;;;;;25.33;15.77;;;9.00;40.60;;;;;;5028211;28;46500;-72
2023/10/17 12:58:54;;;;;;;25.20;16.23;;;9.10;40.60;;;;;;5022473;28;46494;-72
2023/10/17 13:01:25;;;;;;;29.07;16.90;;;9.10;40.70;;;;;;5025957;28;46295;-72
2023/10/17 13:03:53;;;;;;;24.93;15.70;;;9.40;39.90;;;;;;5029892;28;47057;-74
2023/10/17 13:06:21;;;;;;;29.97;16.90;;;9.60;39.00;;;;;;5031229;28;46454;-71
2023/10/17 13:08:48;;;;;;;23.27;14.90;;;9.80;38.80;;;;;;5025359;28;46438;-71
2023/10/17 13:11:14;;;;;;;28.43;16.07;;;9.90;38.30;;;;;;5031926;28;46602;-73
2023/10/17 13:13:39;;;;;;;28.30;16.87;;;9.80;37.40;;;;;;5030624;28;46189;-70
2023/10/17 13:16:05;;;;;;;27.20;17.00;;;9.80;38.60;;;;;;5025840;28;46497;-70
2023/10/17 13:18:35;;;;;;;26.77;15.47;;;9.80;39.20;;;;;;5029040;28;46712;-71
2023/10/17 13:21:06;;;;;;;32.67;16.97;;;9.90;38.60;;;;;;5026935;28;46443;-71
2023/10/17 13:23:32;;;;;;;30.17;16.87;;;9.70;39.10;;;;;;5024837;28;47310;-71
2023/10/17 13:25:58;;;;;;;33.30;19.47;;;9.50;39.00;;;;;;5025262;28;45904;-72
2023/10/17 13:28:24;;;;;;;34.97;18.40;;;9.20;40.00;;;;;;5030616;28;46517;-71
2023/10/17 13:30:50;;;;;;;36.30;19.07;;;9.00;40.60;;;;;;5032879;28;46461;-71
2023/10/17 13:33:20;;;;;;;27.40;17.60;;;9.10;40.60;;;;;;5032605;28;47192;-71
2023/10/17 13:35:46;;;;;;;32.50;17.03;;;9.20;40.00;;;;;;5032807;28;46474;-70
2023/10/17 13:38:13;;;;;;;25.87;16.40;;;9.20;39.80;;;;;;5034131;28;46396;-71
2023/10/17 13:40:39;;;;;;;36.43;18.17;;;9.20;39.60;;;;;;5031564;28;46387;-71
2023/10/17 13:43:04;;;;;;;26.60;17.10;;;9.40;38.20;;;;;;5029142;28;47306;-71
2023/10/17 13:45:37;;;;;;;25.73;16.73;;;9.40;39.20;;;;;;5031735;28;46462;-69
2023/10/17 13:48:02;;;;;;;25.23;15.50;;;9.50;39.40;;;;;;5026780;28;45836;-71
2023/10/17 13:50:28;;;;;;;29.43;16.47;;;9.60;39.00;;;;;;5022257;28;46370;-71
2023/10/17 13:52:54;;;;;;;24.90;15.37;;;9.60;39.10;;;;;;5031216;28;46673;-71
2023/10/17 13:55:26;;;;;;;25.40;15.70;;;9.60;39.10;;;;;;5032383;28;46412;-71
2023/10/17 13:58:00;;;;;;;24.40;15.10;;;9.60;39.10;;;;;;5033978;28;46398;-71
2023/10/17 14:00:31;;;;;;;26.13;15.20;;;9.60;39.00;;;;;;5029690;28;46437;-72
2023/10/17 14:02:57;;;;;;;25.00;15.67;;;9.60;38.00;;;;;;5032148;28;46419;-70
2023/10/17 14:05:23;;;;;;;25.33;16.70;;;9.60;39.10;;;;;;5027195;28;46739;-70
2023/10/17 14:07:50;;;;;;;27.70;15.33;;;9.60;39.10;;;;;;5027803;28;46546;-71
2023/10/17 14:10:15;;;;;;;26.53;15.30;;;9.70;39.10;;;;;;5031035;28;46369;-71
2023/10/17 14:12:41;;;;;;;23.30;15.30;;;9.60;39.00;;;;;;5032708;28;46090;-71
2023/10/17 14:15:09;;;;;;;25.70;15.50;;;9.60;39.10;;;;;;5030818;28;46701;-70
2023/10/17 14:17:36;;;;;;;27.00;15.57;;;9.50;39.40;;;;;;5030716;28;46490;-71
2023/10/17 14:20:14;;;;;;;27.43;16.17;;;9.50;39.40;;;;;;5028896;28;46421;-71
2023/10/17 14:28:09;;;;;;;23.77;14.87;;;9.50;39.90;;;;;;5027713;28;46355;-72
2023/10/17 14:30:41;;;;;;;26.43;14.60;;;9.60;39.70;;;;;;5029319;28;46613;-72
2023/10/17 14:33:09;;;;;;;20.63;13.60;;;9.60;38.80;;;;;;5013231;28;46787;-75
2023/10/17 14:35:37;;;;;;;20.47;13.17;;;9.60;39.50;;;;;;5032824;28;45920;-72
2023/10/17 14:38:03;;;;;;;23.60;13.53;;;9.70;39.20;;;;;;5029629;28;46421;-72
2023/10/17 14:40:30;;;;;;;18.70;11.93;;;9.70;39.40;;;;;;5037844;28;46695;-72
2023/10/17 14:42:55;;;;;;;22.67;13.57;;;9.70;39.20;;;;;;5028288;28;47233;-72
2023/10/17 14:45:24;;;;;;;21.67;14.07;;;9.70;39.30;;;;;;5030760;28;46379;-70
2023/10/17 14:47:50;;;;;;;18.33;11.80;;;9.80;39.20;;;;;;5032695;28;46387;-71
2023/10/17 14:50:16;;;;;;;21.20;13.20;;;9.70;39.10;;;;;;5032188;28;46427;-70
2023/10/17 14:52:41;;;;;;;20.80;14.60;;;9.60;39.60;;;;;;5029152;28;46869;-69
2023/10/17 14:55:14;;;;;;;26.83;16.87;;;9.60;39.80;;;;;;5029159;28;46540;-69
2023/10/17 14:57:43;;;;;;;30.63;16.20;;;9.60;40.00;;;;;;5030751;28;46840;-70
2023/10/17 15:00:14;;;;;;;26.37;14.10;;;9.50;40.00;;;;;;5031928;28;45827;-69
2023/10/17 15:02:39;;;;;;;19.90;13.70;;;9.50;40.10;;;;;;5032855;28;46060;-69
2023/10/17 15:05:07;;;;;;;21.87;14.27;;;9.60;40.10;;;;;;5032970;28;46723;-68
2023/10/17 15:07:34;;;;;;;20.07;13.93;;;9.50;39.90;;;;;;5026684;28;46707;-70
2023/10/17 15:10:00;;;;;;;26.23;15.47;;;9.60;39.60;;;;;;5028400;28;46585;-70
2023/10/17 15:12:25;;;;;;;24.50;15.20;;;9.60;39.70;;;;;;5028944;28;47234;-71
2023/10/17 15:14:51;;;;;;;21.07;15.20;;;9.50;40.00;;;;;;5025770;28;46336;-69